createdAt,value
2018-02-15T00:00:16.043Z,57.79
2018-02-15T00:01:15.993Z,57.60
2018-02-15T00:02:15.945Z,57.70
2018-02-15T00:03:15.897Z,57.79
2018-02-15T00:04:15.847Z,57.70
2018-02-15T00:05:15.798Z,57.79
2018-02-15T00:06:15.752Z,57.79
2018-02-15T00:07:15.701Z,57.79
2018-02-15T00:08:15.657Z,57.70
2018-02-15T00:09:15.605Z,56.75
2018-02-15T00:10:15.554Z,56.75
2018-02-15T00:11:15.513Z,56.94
2018-02-15T00:12:15.460Z,57.89
2018-02-15T00:13:15.411Z,57.98
2018-02-15T00:14:15.368Z,57.70
2018-02-15T00:15:15.316Z,57.60
2018-02-15T00:16:15.262Z,57.89
2018-02-15T00:17:15.223Z,57.04
2018-02-15T00:18:15.169Z,57.13
2018-02-15T00:19:15.120Z,57.04
2018-02-15T00:20:15.071Z,57.13
2018-02-15T00:21:15.023Z,56.94
2018-02-15T00:22:14.976Z,56.94
2018-02-15T00:23:14.922Z,57.13
2018-02-15T00:24:14.873Z,57.98
2018-02-15T00:25:14.828Z,56.94
2018-02-15T00:26:14.777Z,57.70
2018-02-15T00:27:14.729Z,57.04
2018-02-15T00:28:14.680Z,57.51
2018-02-15T00:29:14.631Z,57.70
2018-02-15T00:30:14.584Z,57.89
2018-02-15T00:31:14.535Z,57.23
2018-02-15T00:32:14.488Z,56.94
2018-02-15T00:33:14.439Z,56.94
2018-02-15T00:34:14.388Z,56.94
2018-02-15T00:35:14.342Z,57.70
2018-02-15T00:36:14.290Z,57.32
2018-02-15T00:37:14.242Z,57.70
2018-02-15T00:38:14.194Z,57.32
2018-02-15T00:39:14.146Z,57.13
2018-02-15T00:40:14.098Z,57.13
2018-02-15T00:41:14.049Z,57.04
2018-02-15T00:42:13.999Z,57.51
2018-02-15T00:43:13.951Z,57.70
2018-02-15T00:44:13.903Z,57.89
2018-02-15T00:45:13.855Z,57.70
2018-02-15T00:46:13.808Z,57.32
2018-02-15T00:47:13.760Z,57.04
2018-02-15T00:48:13.706Z,57.70
2018-02-15T00:49:13.657Z,57.70
2018-02-15T00:50:13.614Z,57.32
2018-02-15T00:51:13.563Z,57.42
2018-02-15T00:52:13.518Z,57.89
2018-02-15T00:53:13.463Z,57.79
2018-02-15T00:54:13.419Z,58.45
2018-02-15T00:55:13.369Z,57.79
2018-02-15T00:56:13.319Z,57.60
2018-02-15T00:57:13.270Z,57.04
2018-02-15T00:58:13.223Z,57.70
2018-02-15T00:59:13.176Z,57.51
2018-02-15T01:00:13.129Z,57.51
2018-02-15T01:01:13.081Z,57.89
2018-02-15T01:02:13.028Z,56.85
2018-02-15T01:03:12.981Z,56.85
2018-02-15T01:04:12.929Z,56.75
2018-02-15T01:05:12.885Z,56.56
2018-02-15T01:06:12.834Z,56.66
2018-02-15T01:07:12.787Z,56.75
2018-02-15T01:08:12.733Z,56.85
2018-02-15T01:09:12.687Z,56.85
2018-02-15T01:10:12.639Z,57.04
2018-02-15T01:11:12.589Z,56.75
2018-02-15T01:12:12.539Z,56.56
2018-02-15T01:13:12.491Z,56.94
2018-02-15T01:14:12.445Z,56.85
2018-02-15T01:15:12.394Z,56.75
2018-02-15T01:16:12.350Z,56.66
2018-02-15T01:17:12.300Z,56.66
2018-02-15T01:18:12.248Z,56.66
2018-02-15T01:19:12.205Z,56.85
2018-02-15T01:20:12.150Z,56.56
2018-02-15T01:21:12.104Z,56.75
2018-02-15T01:22:12.057Z,56.75
2018-02-15T01:23:12.007Z,56.18
2018-02-15T01:24:11.960Z,56.37
2018-02-15T01:25:11.909Z,56.27
2018-02-15T01:26:11.860Z,56.27
2018-02-15T01:27:11.815Z,56.27
2018-02-15T01:28:11.763Z,56.27
2018-02-15T01:29:11.714Z,56.27
2018-02-15T01:30:11.667Z,56.75
2018-02-15T01:31:11.616Z,57.13
2018-02-15T01:32:11.567Z,56.46
2018-02-15T01:33:11.524Z,56.27
2018-02-15T01:34:11.470Z,55.80
2018-02-15T01:35:11.421Z,56.27
2018-02-15T01:36:11.373Z,56.18
2018-02-15T01:37:11.324Z,56.27
2018-02-15T01:38:11.275Z,55.80
2018-02-15T01:39:11.235Z,55.52
2018-02-15T01:40:11.182Z,55.62
2018-02-15T01:41:11.130Z,55.62
2018-02-15T01:42:11.087Z,55.24
2018-02-15T01:43:11.034Z,56.18
2018-02-15T01:44:10.982Z,56.27
2018-02-15T01:45:10.935Z,56.09
2018-02-15T01:46:10.890Z,56.37
2018-02-15T01:47:10.841Z,55.71
2018-02-15T01:48:10.788Z,55.33
2018-02-15T01:49:10.741Z,55.80
2018-02-15T01:50:10.691Z,55.52
2018-02-15T01:51:10.642Z,55.80
2018-02-15T01:52:10.639Z,55.33
2018-02-15T01:53:10.548Z,55.52
2018-02-15T01:54:10.499Z,55.33
2018-02-15T01:55:10.490Z,55.33
2018-02-15T01:56:10.403Z,55.71
2018-02-15T01:57:10.433Z,55.52
2018-02-15T01:58:10.510Z,55.52
2018-02-15T01:59:10.255Z,55.71
2018-02-15T02:00:10.208Z,54.86
2018-02-15T02:01:10.161Z,55.14
2018-02-15T02:02:10.109Z,55.05
2018-02-15T02:03:10.061Z,55.05
2018-02-15T02:04:10.018Z,55.33
2018-02-15T02:05:09.964Z,55.07
2018-02-15T02:06:09.917Z,54.95
2018-02-15T02:07:09.866Z,55.05
2018-02-15T02:08:09.820Z,54.95
2018-02-15T02:09:09.771Z,54.86
2018-02-15T02:10:09.721Z,55.05
2018-02-15T02:11:09.678Z,54.57
2018-02-15T02:12:09.632Z,54.67
2018-02-15T02:13:09.576Z,54.98
2018-02-15T02:14:09.528Z,54.86
2018-02-15T02:15:09.481Z,55.05
2018-02-15T02:16:09.436Z,54.88
2018-02-15T02:17:09.381Z,54.69
2018-02-15T02:18:09.335Z,54.69
2018-02-15T02:19:09.283Z,55.24
2018-02-15T02:20:09.234Z,54.86
2018-02-15T02:21:09.191Z,55.05
2018-02-15T02:22:09.138Z,55.05
2018-02-15T02:23:09.093Z,55.17
2018-02-15T02:24:09.041Z,55.05
2018-02-15T02:25:08.995Z,54.79
2018-02-15T02:26:08.945Z,54.69
2018-02-15T02:27:08.898Z,54.69
2018-02-15T02:28:08.846Z,54.69
2018-02-15T02:29:08.801Z,54.69
2018-02-15T02:30:08.751Z,54.60
2018-02-15T02:31:08.704Z,54.69
2018-02-15T02:32:08.654Z,54.98
2018-02-15T02:33:08.603Z,54.98
2018-02-15T02:34:08.558Z,54.79
2018-02-15T02:35:08.507Z,54.32
2018-02-15T02:36:08.466Z,54.32
2018-02-15T02:37:08.415Z,54.60
2018-02-15T02:38:08.368Z,54.32
2018-02-15T02:39:08.314Z,54.69
2018-02-15T02:40:08.265Z,54.79
2018-02-15T02:41:08.218Z,54.32
2018-02-15T02:42:08.168Z,54.60
2018-02-15T02:43:08.119Z,54.79
2018-02-15T02:44:08.076Z,55.07
2018-02-15T02:45:08.025Z,54.50
2018-02-15T02:46:07.973Z,54.50
2018-02-15T02:47:07.926Z,55.07
2018-02-15T02:48:07.880Z,54.69
2018-02-15T02:49:07.830Z,55.07
2018-02-15T02:50:07.781Z,54.69
2018-02-15T02:51:07.731Z,55.17
2018-02-15T02:52:07.681Z,55.17
2018-02-15T02:53:07.633Z,55.07
2018-02-15T02:54:07.585Z,54.69
2018-02-15T02:55:07.539Z,55.07
2018-02-15T02:56:07.489Z,54.79
2018-02-15T02:57:07.438Z,54.50
2018-02-15T02:58:07.392Z,55.07
2018-02-15T02:59:07.344Z,54.79
2018-02-15T03:00:07.299Z,55.45
2018-02-15T03:01:07.247Z,55.64
2018-02-15T03:02:07.200Z,55.64
2018-02-15T03:03:07.147Z,55.36
2018-02-15T03:04:07.101Z,55.45
2018-02-15T03:05:07.056Z,55.07
2018-02-15T03:06:07.003Z,55.83
2018-02-15T03:07:06.972Z,55.74
2018-02-15T03:08:06.904Z,55.55
2018-02-15T03:09:06.856Z,55.83
2018-02-15T03:10:06.808Z,55.74
2018-02-15T03:11:06.761Z,55.45
2018-02-15T03:12:06.710Z,55.17
2018-02-15T03:13:06.665Z,55.74
2018-02-15T03:14:06.614Z,55.74
2018-02-15T03:15:06.570Z,55.74
2018-02-15T03:16:06.518Z,55.45
2018-02-15T03:17:06.470Z,55.36
2018-02-15T03:18:06.422Z,55.64
2018-02-15T03:19:06.370Z,55.64
2018-02-15T03:20:06.324Z,55.45
2018-02-15T03:21:06.276Z,55.26
2018-02-15T03:22:06.235Z,55.74
2018-02-15T03:23:06.180Z,55.83
2018-02-15T03:24:06.134Z,56.21
2018-02-15T03:25:06.086Z,56.02
2018-02-15T03:26:06.031Z,56.21
2018-02-15T03:27:05.985Z,56.40
2018-02-15T03:28:05.940Z,56.78
2018-02-15T03:29:05.890Z,56.97
2018-02-15T03:30:05.840Z,56.97
2018-02-15T03:31:05.794Z,57.64
2018-02-15T03:32:05.749Z,58.29
2018-02-15T03:33:05.694Z,58.65
2018-02-15T03:34:05.644Z,58.74
2018-02-15T03:35:05.599Z,59.44
2018-02-15T03:36:05.547Z,59.69
2018-02-15T03:37:05.502Z,59.59
2018-02-15T03:38:05.453Z,60.00
2018-02-15T03:39:05.403Z,60.92
2018-02-15T03:40:05.357Z,61.21
2018-02-15T03:41:05.306Z,63.10
2018-02-15T03:42:05.257Z,65.37
2018-02-15T03:43:05.209Z,66.60
2018-02-15T03:44:05.164Z,67.08
2018-02-15T03:45:05.114Z,67.93
2018-02-15T03:46:05.063Z,68.40
2018-02-15T03:47:05.017Z,69.07
2018-02-15T03:48:04.968Z,69.64
2018-02-15T03:49:04.917Z,70.58
2018-02-15T03:50:04.929Z,71.34
2018-02-15T03:51:04.941Z,71.44
2018-02-15T03:52:04.772Z,71.88
2018-02-15T03:53:04.725Z,73.39
2018-02-15T03:54:04.674Z,74.62
2018-02-15T03:55:04.625Z,75.57
2018-02-15T03:56:04.576Z,76.80
2018-02-15T03:57:04.527Z,76.80
2018-02-15T03:58:04.478Z,77.27
2018-02-15T03:59:04.430Z,77.65
2018-02-15T04:00:04.385Z,78.31
2018-02-15T04:01:04.331Z,78.98
2018-02-15T04:02:04.283Z,79.17
2018-02-15T04:03:04.234Z,79.45
2018-02-15T04:04:04.186Z,80.30
2018-02-15T04:05:04.133Z,81.02
2018-02-15T04:06:04.090Z,81.34
2018-02-15T04:07:04.042Z,81.30
2018-02-15T04:08:03.992Z,81.92
2018-02-15T04:09:03.938Z,82.76
2018-02-15T04:10:03.893Z,82.91
2018-02-15T04:11:03.842Z,84.14
2018-02-15T04:12:03.792Z,84.14
2018-02-15T04:13:03.757Z,84.61
2018-02-15T04:14:03.694Z,85.00
2018-02-15T04:15:03.647Z,85.57
2018-02-15T04:16:03.600Z,85.75
2018-02-15T04:17:03.553Z,86.32
2018-02-15T04:18:03.495Z,86.41
2018-02-15T04:19:03.448Z,86.89
2018-02-15T04:20:03.398Z,87.27
2018-02-15T04:21:03.350Z,87.84
2018-02-15T04:22:03.301Z,88.68
2018-02-15T04:23:03.271Z,88.97
2018-02-15T04:24:03.204Z,88.78
2018-02-15T04:25:03.153Z,89.44
2018-02-15T04:26:03.102Z,89.63
2018-02-15T04:27:03.054Z,89.92
2018-02-15T04:28:03.003Z,91.01
2018-02-15T04:29:02.954Z,90.86
2018-02-15T04:30:02.912Z,91.53
2018-02-15T04:31:02.861Z,91.10
2018-02-15T04:32:02.807Z,91.58
2018-02-15T04:33:02.760Z,91.20
2018-02-15T04:34:02.713Z,92.14
2018-02-15T04:35:02.663Z,92.24
2018-02-15T04:36:02.609Z,92.52
2018-02-15T04:37:02.562Z,92.33
2018-02-15T04:38:02.512Z,92.80
2018-02-15T04:39:02.460Z,92.90
2018-02-15T04:40:02.411Z,92.71
2018-02-15T04:41:02.366Z,93.47
2018-02-15T04:42:02.312Z,93.47
2018-02-15T04:43:02.268Z,94.04
2018-02-15T04:44:02.213Z,94.13
2018-02-15T04:45:02.164Z,94.13
2018-02-15T04:46:02.143Z,94.51
2018-02-15T04:47:02.071Z,94.23
2018-02-15T04:48:02.014Z,94.04
2018-02-15T04:49:01.967Z,94.32
2018-02-15T04:50:01.921Z,94.89
2018-02-15T04:51:01.866Z,94.42
2018-02-15T04:52:01.815Z,95.07
2018-02-15T04:53:01.769Z,95.55
2018-02-15T04:54:01.723Z,95.36
2018-02-15T04:55:01.675Z,95.36
2018-02-15T04:56:01.616Z,95.07
2018-02-15T04:57:01.566Z,95.45
2018-02-15T04:58:01.519Z,95.36
2018-02-15T04:59:01.470Z,95.26
2018-02-15T05:00:01.421Z,95.45
2018-02-15T05:01:01.371Z,95.64
2018-02-15T05:02:01.320Z,96.12
2018-02-15T05:03:01.273Z,96.21
2018-02-15T05:04:01.221Z,95.93
2018-02-15T05:05:01.172Z,95.93
2018-02-15T05:06:01.123Z,95.93
2018-02-15T05:07:01.072Z,95.93
2018-02-15T05:08:01.024Z,95.83
2018-02-15T05:09:00.970Z,96.21
2018-02-15T05:10:00.932Z,96.02
2018-02-15T05:11:00.874Z,96.12
2018-02-15T05:12:00.827Z,96.31
2018-02-15T05:13:00.785Z,96.12
2018-02-15T05:14:00.725Z,96.78
2018-02-15T05:15:00.675Z,96.40
2018-02-15T05:16:00.625Z,96.31
2018-02-15T05:17:00.575Z,96.50
2018-02-15T05:18:00.524Z,96.88
2018-02-15T05:19:00.478Z,96.78
2018-02-15T05:20:00.425Z,96.59
2018-02-15T05:21:00.382Z,96.78
2018-02-15T05:22:00.323Z,96.97
2018-02-15T05:23:00.274Z,96.78
2018-02-15T05:24:00.227Z,96.78
2018-02-15T05:25:00.183Z,96.50
2018-02-15T05:26:00.124Z,97.25
2018-02-15T05:27:00.073Z,97.25
2018-02-15T05:28:00.030Z,97.16
2018-02-15T05:28:59.975Z,97.34
2018-02-15T05:29:59.927Z,96.78
2018-02-15T05:30:59.876Z,96.78
2018-02-15T05:31:59.825Z,96.50
2018-02-15T05:32:59.776Z,96.50
2018-02-15T05:33:59.729Z,97.25
2018-02-15T05:34:59.675Z,97.34
2018-02-15T05:35:59.628Z,97.34
2018-02-15T05:36:59.583Z,97.44
2018-02-15T05:37:59.524Z,97.44
2018-02-15T05:38:59.477Z,98.01
2018-02-15T05:39:59.430Z,97.91
2018-02-15T05:40:59.375Z,98.01
2018-02-15T05:41:59.326Z,97.63
2018-02-15T05:42:59.278Z,98.10
2018-02-15T05:43:59.232Z,98.20
2018-02-15T05:44:59.181Z,97.91
2018-02-15T05:45:59.123Z,98.48
2018-02-15T05:46:59.078Z,98.58
2018-02-15T05:47:59.026Z,98.96
2018-02-15T05:48:58.977Z,99.24
2018-02-15T05:49:58.925Z,98.86
2018-02-15T05:50:58.876Z,98.67
2018-02-15T05:51:58.834Z,98.67
2018-02-15T05:52:58.778Z,99.05
2018-02-15T05:53:58.733Z,99.33
2018-02-15T05:54:58.683Z,99.15
2018-02-15T05:55:58.627Z,99.05
2018-02-15T05:56:58.578Z,99.15
2018-02-15T05:57:58.528Z,99.15
2018-02-15T05:58:58.477Z,99.15
2018-02-15T05:59:58.427Z,99.05
2018-02-15T06:00:58.376Z,99.52
2018-02-15T06:01:58.328Z,99.80
2018-02-15T06:02:58.280Z,99.80
2018-02-15T06:03:58.229Z,99.62
2018-02-15T06:04:58.176Z,99.43
2018-02-15T06:05:58.126Z,99.43
2018-02-15T06:06:58.079Z,99.62
2018-02-15T06:07:58.027Z,99.52
2018-02-15T06:08:57.975Z,99.52
2018-02-15T06:09:57.928Z,99.90
2018-02-15T06:10:57.877Z,99.71
2018-02-15T06:11:57.826Z,99.80
2018-02-15T06:12:57.778Z,99.52
2018-02-15T06:13:57.729Z,99.33
2018-02-15T06:14:57.675Z,99.99
2018-02-15T06:15:57.625Z,99.99
2018-02-15T06:16:57.581Z,99.71
2018-02-15T06:17:57.537Z,99.99
2018-02-15T06:18:57.477Z,99.71
2018-02-15T06:19:57.426Z,99.24
2018-02-15T06:20:57.376Z,99.99
2018-02-15T06:21:57.332Z,99.99
2018-02-15T06:22:57.276Z,99.99
2018-02-15T06:23:57.228Z,99.99
2018-02-15T06:24:57.178Z,99.80
2018-02-15T06:25:57.124Z,99.99
2018-02-15T06:26:57.080Z,99.99
2018-02-15T06:27:57.028Z,99.99
2018-02-15T06:28:56.977Z,99.99
2018-02-15T06:29:56.937Z,99.99
2018-02-15T06:30:56.877Z,99.62
2018-02-15T06:31:56.828Z,99.62
2018-02-15T06:32:56.777Z,99.99
2018-02-15T06:33:56.737Z,99.85
2018-02-15T06:34:56.682Z,99.99
2018-02-15T06:35:56.629Z,99.43
2018-02-15T06:36:56.576Z,99.43
2018-02-15T06:37:56.526Z,99.62
2018-02-15T06:38:56.482Z,99.43
2018-02-15T06:39:56.428Z,99.24
2018-02-15T06:40:56.380Z,99.24
2018-02-15T06:41:56.330Z,99.19
2018-02-15T06:42:56.279Z,99.01
2018-02-15T06:43:56.230Z,98.44
2018-02-15T06:44:56.180Z,98.44
2018-02-15T06:45:56.134Z,98.63
2018-02-15T06:46:56.078Z,98.15
2018-02-15T06:47:56.032Z,98.06
2018-02-15T06:48:55.980Z,98.34
2018-02-15T06:49:55.935Z,98.44
2018-02-15T06:50:55.881Z,98.15
2018-02-15T06:51:55.829Z,98.15
2018-02-15T06:52:55.779Z,97.96
2018-02-15T06:54:55.683Z,97.87
2018-02-15T06:55:55.633Z,98.06
2018-02-15T06:56:55.590Z,98.15
2018-02-15T06:57:55.535Z,98.15
2018-02-15T06:58:55.482Z,97.68
2018-02-15T06:59:55.433Z,97.20
2018-02-15T07:00:55.380Z,97.39
2018-02-15T07:01:55.332Z,97.58
2018-02-15T07:02:55.286Z,97.39
2018-02-15T07:03:55.231Z,97.68
2018-02-15T07:04:55.186Z,97.58
2018-02-15T07:05:55.141Z,96.92
2018-02-15T07:06:55.085Z,97.11
2018-02-15T07:07:55.037Z,96.73
2018-02-15T07:08:57.686Z,96.54
2018-02-15T07:09:54.936Z,96.83
2018-02-15T07:10:54.891Z,97.11
2018-02-15T07:11:54.874Z,96.26
2018-02-15T07:12:54.786Z,96.16
2018-02-15T07:13:54.738Z,96.64
2018-02-15T07:14:54.688Z,96.16
2018-02-15T07:15:54.636Z,96.45
2018-02-15T07:16:54.587Z,96.35
2018-02-15T07:17:54.538Z,96.64
2018-02-15T07:18:54.485Z,96.54
2018-02-15T07:19:54.435Z,96.35
2018-02-15T07:20:54.391Z,96.73
2018-02-15T07:21:54.335Z,96.35
2018-02-15T07:22:54.289Z,96.07
2018-02-15T07:23:54.240Z,96.35
2018-02-15T07:24:54.189Z,95.97
2018-02-15T07:25:54.137Z,95.78
2018-02-15T07:26:54.087Z,96.07
2018-02-15T07:27:54.036Z,96.07
2018-02-15T07:28:53.993Z,95.69
2018-02-15T07:29:53.944Z,96.16
2018-02-15T07:30:53.890Z,96.35
2018-02-15T07:31:53.843Z,95.69
2018-02-15T07:32:53.792Z,95.40
2018-02-15T07:33:53.742Z,95.12
2018-02-15T07:34:53.691Z,95.03
2018-02-15T07:35:53.641Z,95.31
2018-02-15T07:36:53.592Z,95.40
2018-02-15T07:37:53.542Z,95.21
2018-02-15T07:38:53.493Z,95.03
2018-02-15T07:39:53.445Z,94.37
2018-02-15T07:40:53.396Z,94.56
2018-02-15T07:41:53.347Z,94.74
2018-02-15T07:42:53.296Z,94.56
2018-02-15T07:43:53.246Z,94.08
2018-02-15T07:44:53.198Z,93.89
2018-02-15T07:45:53.149Z,93.99
2018-02-15T07:46:53.098Z,94.18
2018-02-15T07:47:53.046Z,93.99
2018-02-15T07:48:52.996Z,93.99
2018-02-15T07:49:52.951Z,93.80
2018-02-15T07:50:52.900Z,93.94
2018-02-15T07:51:52.848Z,94.13
2018-02-15T07:52:52.798Z,93.70
2018-02-15T07:53:52.750Z,93.84
2018-02-15T07:54:52.700Z,94.13
2018-02-15T07:55:52.653Z,92.99
2018-02-15T07:56:52.600Z,92.85
2018-02-15T07:57:52.553Z,93.08
2018-02-15T07:58:52.506Z,92.99
2018-02-15T07:59:52.452Z,93.37
2018-02-15T08:00:52.402Z,93.08
2018-02-15T08:01:52.354Z,93.37
2018-02-15T08:02:52.305Z,93.08
2018-02-15T08:03:52.254Z,92.66
2018-02-15T08:04:52.204Z,93.27
2018-02-15T08:05:52.157Z,93.27
2018-02-15T08:06:52.106Z,93.18
2018-02-15T08:07:52.061Z,92.61
2018-02-15T08:08:52.011Z,92.43
2018-02-15T08:09:51.957Z,92.05
2018-02-15T08:10:51.908Z,92.80
2018-02-15T08:11:51.860Z,92.71
2018-02-15T08:12:51.807Z,92.61
2018-02-15T08:13:51.760Z,92.33
2018-02-15T08:14:51.715Z,92.99
2018-02-15T08:15:51.663Z,92.43
2018-02-15T08:16:51.610Z,91.95
2018-02-15T08:17:51.564Z,92.24
2018-02-15T08:18:51.517Z,91.76
2018-02-15T08:19:51.462Z,92.61
2018-02-15T08:20:51.414Z,92.43
2018-02-15T08:21:51.365Z,92.05
2018-02-15T08:22:51.340Z,92.05
2018-02-15T08:23:51.272Z,92.33
2018-02-15T08:24:51.216Z,91.38
2018-02-15T08:25:51.171Z,92.33
2018-02-15T08:26:51.120Z,92.14
2018-02-15T08:27:51.071Z,91.76
2018-02-15T08:28:51.020Z,91.10
2018-02-15T08:29:50.974Z,91.19
2018-02-15T08:30:50.921Z,90.53
2018-02-15T08:31:50.872Z,91.00
2018-02-15T08:32:50.826Z,91.00
2018-02-15T08:33:50.808Z,90.15
2018-02-15T08:34:50.725Z,90.63
2018-02-15T08:35:50.675Z,90.53
2018-02-15T08:36:50.626Z,91.00
2018-02-15T08:37:50.578Z,90.25
2018-02-15T08:38:50.526Z,91.38
2018-02-15T08:39:50.478Z,90.44
2018-02-15T08:40:50.430Z,90.63
2018-02-15T08:41:50.383Z,91.00
2018-02-15T08:42:50.330Z,90.53
2018-02-15T08:43:50.293Z,90.63
2018-02-15T08:44:50.231Z,90.72
2018-02-15T08:45:50.183Z,91.19
2018-02-15T08:46:50.132Z,91.48
2018-02-15T08:47:50.083Z,91.38
2018-02-15T08:48:50.034Z,92.05
2018-02-15T08:49:49.984Z,92.33
2018-02-15T08:50:49.937Z,91.95
2018-02-15T08:51:49.885Z,92.61
2018-02-15T08:52:49.838Z,92.05
2018-02-15T08:53:49.787Z,92.43
2018-02-15T08:54:49.740Z,92.99
2018-02-15T08:55:49.691Z,92.80
2018-02-15T08:56:49.645Z,92.14
2018-02-15T08:57:49.596Z,91.86
2018-02-15T08:58:49.543Z,92.24
2018-02-15T08:59:49.496Z,91.86
2018-02-15T09:00:49.446Z,92.24
2018-02-15T09:01:49.395Z,92.14
2018-02-15T09:02:49.347Z,91.76
2018-02-15T09:03:49.298Z,91.86
2018-02-15T09:04:49.253Z,92.14
2018-02-15T09:05:49.201Z,92.43
2018-02-15T09:06:49.150Z,92.14
2018-02-15T09:07:49.100Z,91.86
2018-02-15T09:08:49.051Z,92.43
2018-02-15T09:09:49.006Z,92.43
2018-02-15T09:10:48.951Z,92.52
2018-02-15T09:11:48.907Z,92.24
2018-02-15T09:12:48.855Z,92.71
2018-02-15T09:13:48.809Z,92.80
2018-02-15T09:14:48.759Z,92.71
2018-02-15T09:15:48.706Z,92.80
2018-02-15T09:16:48.658Z,92.71
2018-02-15T09:17:48.608Z,93.56
2018-02-15T09:18:48.561Z,93.56
2018-02-15T09:19:48.509Z,92.99
2018-02-15T09:20:48.465Z,93.56
2018-02-15T09:21:48.415Z,93.65
2018-02-15T09:22:48.367Z,93.56
2018-02-15T09:23:48.316Z,93.08
2018-02-15T09:24:48.268Z,93.46
2018-02-15T09:25:48.219Z,93.65
2018-02-15T09:26:48.173Z,93.65
2018-02-15T09:27:48.118Z,93.56
2018-02-15T09:28:48.069Z,93.56
2018-02-15T09:29:48.027Z,93.65
2018-02-15T09:30:47.974Z,93.18
2018-02-15T09:31:47.925Z,92.99
2018-02-15T09:32:47.876Z,93.27
2018-02-15T09:33:47.822Z,93.27
2018-02-15T09:34:47.779Z,93.27
2018-02-15T09:35:47.729Z,93.46
2018-02-15T09:36:47.683Z,93.27
2018-02-15T09:37:47.632Z,93.56
2018-02-15T09:38:47.580Z,93.65
2018-02-15T09:39:47.529Z,93.27
2018-02-15T09:40:47.482Z,93.65
2018-02-15T09:41:47.435Z,94.13
2018-02-15T09:42:47.383Z,94.13
2018-02-15T09:43:47.339Z,93.94
2018-02-15T09:44:47.290Z,94.13
2018-02-15T09:45:47.291Z,94.23
2018-02-15T09:46:47.198Z,94.70
2018-02-15T09:47:47.139Z,94.60
2018-02-15T09:48:47.089Z,94.98
2018-02-15T09:49:47.044Z,95.74
2018-02-15T09:50:46.993Z,96.12
2018-02-15T09:51:46.940Z,95.36
2018-02-15T09:52:46.897Z,94.89
2018-02-15T09:53:46.849Z,95.64
2018-02-15T09:54:46.796Z,95.74
2018-02-15T09:55:46.746Z,95.93
2018-02-15T09:56:46.696Z,95.74
2018-02-15T09:57:46.647Z,96.12
2018-02-15T09:58:46.598Z,96.50
2018-02-15T09:59:46.553Z,95.93
2018-02-15T10:00:46.504Z,96.12
2018-02-15T10:01:46.452Z,96.02
2018-02-15T10:02:46.403Z,96.31
2018-02-15T10:03:46.353Z,96.40
2018-02-15T10:04:46.304Z,96.31
2018-02-15T10:05:46.257Z,96.59
2018-02-15T10:06:46.207Z,96.31
2018-02-15T10:07:46.159Z,96.50
2018-02-15T10:08:46.115Z,96.59
2018-02-15T10:09:46.065Z,96.69
2018-02-15T10:10:46.017Z,96.88
2018-02-15T10:11:45.965Z,96.88
2018-02-15T10:12:45.922Z,96.69
2018-02-15T10:13:45.865Z,96.83
2018-02-15T10:14:45.815Z,96.73
2018-02-15T10:15:45.767Z,96.50
2018-02-15T10:16:45.719Z,96.26
2018-02-15T10:17:45.672Z,96.69
2018-02-15T10:18:45.619Z,97.06
2018-02-15T10:19:45.568Z,96.88
2018-02-15T10:20:45.524Z,96.78
2018-02-15T10:21:45.474Z,96.92
2018-02-15T10:22:45.434Z,97.35
2018-02-15T10:23:45.376Z,96.59
2018-02-15T10:24:45.326Z,96.78
2018-02-15T10:25:45.279Z,96.88
2018-02-15T10:26:45.233Z,97.44
2018-02-15T10:27:45.178Z,97.73
2018-02-15T10:28:45.130Z,98.01
2018-02-15T10:29:45.085Z,97.92
2018-02-15T10:30:45.035Z,97.63
2018-02-15T10:31:44.984Z,98.49
2018-02-15T10:32:44.934Z,98.30
2018-02-15T10:33:44.885Z,98.58
2018-02-15T10:34:44.838Z,98.63
2018-02-15T10:35:44.786Z,98.01
2018-02-15T10:36:44.742Z,98.20
2018-02-15T10:37:44.691Z,98.77
2018-02-15T10:38:44.641Z,98.77
2018-02-15T10:39:44.592Z,98.30
2018-02-15T10:40:44.542Z,99.33
2018-02-15T10:41:44.496Z,98.68
2018-02-15T10:42:44.446Z,98.96
2018-02-15T10:43:44.399Z,98.86
2018-02-15T10:44:44.351Z,98.96
2018-02-15T10:45:44.301Z,98.68
2018-02-15T10:46:44.256Z,99.15
2018-02-15T10:47:44.202Z,99.05
2018-02-15T10:48:44.151Z,98.58
2018-02-15T10:49:44.102Z,98.49
2018-02-15T10:50:44.054Z,99.05
2018-02-15T10:51:44.007Z,99.15
2018-02-15T10:52:43.957Z,98.58
2018-02-15T10:53:43.908Z,99.15
2018-02-15T10:54:43.862Z,98.96
2018-02-15T10:55:43.813Z,99.24
2018-02-15T10:56:43.763Z,99.33
2018-02-15T10:57:43.711Z,99.15
2018-02-15T10:58:43.664Z,99.33
2018-02-15T10:59:43.614Z,99.33
2018-02-15T11:00:43.565Z,99.24
2018-02-15T11:01:43.516Z,99.24
2018-02-15T11:02:43.468Z,99.24
2018-02-15T11:03:43.421Z,99.05
2018-02-15T11:04:43.371Z,99.62
2018-02-15T11:05:43.319Z,99.62
2018-02-15T11:06:43.271Z,99.81
2018-02-15T11:07:43.223Z,99.52
2018-02-15T11:08:43.178Z,99.24
2018-02-15T11:09:43.125Z,99.33
2018-02-15T11:10:43.077Z,99.71
2018-02-15T11:11:43.033Z,99.71
2018-02-15T11:12:42.976Z,99.71
2018-02-15T11:13:42.938Z,99.71
2018-02-15T11:14:42.880Z,99.33
2018-02-15T11:15:42.832Z,99.62
2018-02-15T11:16:42.790Z,99.77
2018-02-15T11:17:42.736Z,99.77
2018-02-15T11:18:42.684Z,99.77
2018-02-15T11:19:42.635Z,99.99
2018-02-15T11:20:42.586Z,99.99
2018-02-15T11:21:42.544Z,99.77
2018-02-15T11:22:42.488Z,99.99
2018-02-15T11:23:42.442Z,99.99
2018-02-15T11:24:42.397Z,99.99
2018-02-15T11:25:42.343Z,99.77
2018-02-15T11:26:42.296Z,99.29
2018-02-15T11:27:42.246Z,98.91
2018-02-15T11:28:42.198Z,99.10
2018-02-15T11:29:42.147Z,99.29
2018-02-15T11:30:42.102Z,99.39
2018-02-15T11:31:42.093Z,99.39
2018-02-15T11:32:42.001Z,99.39
2018-02-15T11:33:41.957Z,99.10
2018-02-15T11:34:41.906Z,99.10
2018-02-15T11:35:41.857Z,99.48
2018-02-15T11:36:41.820Z,99.39
2018-02-15T11:37:41.758Z,99.39
2018-02-15T11:38:41.712Z,99.77
2018-02-15T11:39:41.665Z,99.58
2018-02-15T11:40:41.614Z,99.67
2018-02-15T11:41:41.567Z,99.99
2018-02-15T11:42:41.522Z,99.96
2018-02-15T11:43:41.472Z,99.39
2018-02-15T11:44:41.421Z,99.99
2018-02-15T11:45:41.372Z,99.58
2018-02-15T11:46:41.322Z,99.77
2018-02-15T11:47:41.270Z,99.58
2018-02-15T11:48:41.227Z,99.77
2018-02-15T11:49:41.176Z,99.96
2018-02-15T11:50:41.128Z,99.86
2018-02-15T11:51:41.079Z,99.96
2018-02-15T11:52:41.029Z,99.77
2018-02-15T11:53:40.981Z,99.39
2018-02-15T11:54:40.932Z,99.99
2018-02-15T11:55:40.893Z,99.99
2018-02-15T11:56:40.878Z,99.99
2018-02-15T11:57:40.788Z,99.99
2018-02-15T11:58:40.738Z,99.99
2018-02-15T11:59:40.690Z,99.99
2018-02-15T12:00:40.642Z,99.99
2018-02-15T12:01:40.592Z,99.96
2018-02-15T12:02:40.548Z,99.99
2018-02-15T12:03:40.497Z,99.99
2018-02-15T12:04:40.447Z,99.99
2018-02-15T12:05:40.400Z,99.99
2018-02-15T12:06:40.355Z,99.99
2018-02-15T12:07:40.304Z,99.99
2018-02-15T12:08:40.254Z,99.99
2018-02-15T12:09:40.208Z,99.99
2018-02-15T12:10:40.182Z,99.86
2018-02-15T12:11:40.111Z,99.86
2018-02-15T12:12:40.066Z,99.77
2018-02-15T12:13:40.014Z,99.86
2018-02-15T12:14:39.965Z,99.99
2018-02-15T12:15:39.918Z,99.39
2018-02-15T12:16:39.868Z,99.48
2018-02-15T12:17:39.826Z,99.20
2018-02-15T12:18:39.774Z,99.77
2018-02-15T12:19:39.728Z,99.20
2018-02-15T12:20:39.675Z,99.86
2018-02-15T12:21:39.629Z,99.77
2018-02-15T12:22:39.584Z,99.86
2018-02-15T12:23:39.535Z,99.77
2018-02-15T12:24:39.484Z,99.58
2018-02-15T12:25:39.435Z,99.29
2018-02-15T12:26:39.389Z,99.48
2018-02-15T12:27:39.338Z,99.72
2018-02-15T12:28:39.291Z,99.96
2018-02-15T12:29:39.240Z,99.63
2018-02-15T12:30:39.192Z,99.34
2018-02-15T12:31:39.145Z,99.99
2018-02-15T12:32:39.096Z,99.99
2018-02-15T12:33:39.048Z,99.86
2018-02-15T12:34:39.001Z,99.72
2018-02-15T12:35:38.957Z,99.63
2018-02-15T12:36:38.909Z,99.63
2018-02-15T12:37:38.860Z,99.72
2018-02-15T12:38:38.807Z,99.91
2018-02-15T12:39:38.758Z,99.91
2018-02-15T12:40:38.709Z,99.63
2018-02-15T12:41:38.671Z,99.91
2018-02-15T12:42:38.617Z,99.91
2018-02-15T12:43:38.569Z,99.44
2018-02-15T12:44:38.521Z,99.82
2018-02-15T12:45:38.472Z,99.63
2018-02-15T12:46:38.425Z,99.82
2018-02-15T12:47:38.374Z,99.82
2018-02-15T12:48:38.329Z,99.63
2018-02-15T12:49:38.287Z,99.99
2018-02-15T12:50:38.238Z,99.99
2018-02-15T12:51:38.183Z,99.91
2018-02-15T12:52:38.140Z,99.99